Time;durP1;ratioP1;P1;durP2;ratioP2;P2;SDS_P1;SDS_P2;PMS_P1;PMS_P2;Temp;Humidity;BMP_temperature;BMP_pressure;BME280_temperature;BME280_humidity;BME280_pressure;Samples;Min_cycle;Max_cycle;Signal;HPM_P1;HPM_P2
2024/01/08 00:02:23;;;;;;;8.80;5.65;;;;;;;-3.08;100.00;102929.53;5072383;28;20052;-49
2024/01/08 00:04:52;;;;;;;8.70;4.97;;;;;;;-3.09;100.00;102933.81;5071837;28;20055;-48
2024/01/08 00:07:22;;;;;;;10.80;5.10;;;;;;;-3.14;100.00;102929.38;5069517;28;20123;-51
2024/01/08 00:09:53;;;;;;;8.07;5.20;;;;;;;-3.15;100.00;102927.63;5070184;28;20450;-51
2024/01/08 00:12:21;;;;;;;8.88;5.57;;;;;;;-3.15;100.00;102925.94;5069584;28;20529;-50
2024/01/08 00:14:50;;;;;;;7.85;4.80;;;;;;;-3.17;100.00;102922.44;5069643;28;20048;-49
2024/01/08 00:17:18;;;;;;;8.77;4.97;;;;;;;-3.20;100.00;102924.97;5068512;28;20045;-50
2024/01/08 00:19:46;;;;;;;8.02;4.70;;;;;;;-3.23;100.00;102919.75;5069357;28;20055;-49
2024/01/08 00:22:14;;;;;;;9.18;4.50;;;;;;;-3.20;100.00;102916.34;5072050;28;20407;-50
2024/01/08 00:24:44;;;;;;;8.57;4.68;;;;;;;-3.24;100.00;102921.41;5070984;28;20048;-46
2024/01/08 00:27:13;;;;;;;9.70;4.40;;;;;;;-3.25;100.00;102922.25;5068453;28;20052;-45
2024/01/08 00:29:41;;;;;;;9.07;4.68;;;;;;;-3.27;100.00;102925.66;5071248;28;20127;-46
2024/01/08 00:32:09;;;;;;;8.30;4.50;;;;;;;-3.29;100.00;102925.56;5071956;28;20102;-45
2024/01/08 00:34:40;;;;;;;6.88;4.10;;;;;;;-3.32;100.00;102912.63;5072093;28;20045;-47
2024/01/08 00:37:08;;;;;;;8.13;4.50;;;;;;;-3.30;100.00;102920.41;5070276;28;20075;-49
2024/01/08 00:39:36;;;;;;;8.05;4.47;;;;;;;-3.28;100.00;102917.03;5069085;28;20571;-48
2024/01/08 00:42:08;;;;;;;8.15;4.18;;;;;;;-3.34;100.00;102916.88;5071669;28;20095;-49
2024/01/08 00:44:36;;;;;;;8.57;4.75;;;;;;;-3.36;100.00;102920.25;5071893;28;20080;-48
2024/01/08 00:47:04;;;;;;;7.70;4.38;;;;;;;-3.42;100.00;102915.81;5071755;28;20127;-48
2024/01/08 00:49:35;;;;;;;8.88;3.95;;;;;;;-3.42;100.00;102913.25;5070385;28;20047;-50
2024/01/08 00:52:04;;;;;;;8.60;4.20;;;;;;;-3.46;100.00;102919.16;5068396;28;20377;-50
2024/01/08 00:54:32;;;;;;;7.95;4.05;;;;;;;-3.50;100.00;102923.31;5067462;28;20067;-49
2024/01/08 00:57:00;;;;;;;7.85;4.10;;;;;;;-3.54;100.00;102923.19;5068000;28;20515;-51
2024/01/08 00:59:30;;;;;;;7.30;3.78;;;;;;;-3.57;100.00;102927.44;5068197;28;20055;-51
2024/01/08 01:01:58;;;;;;;7.30;3.80;;;;;;;-3.55;100.00;102935.19;5067898;28;20045;-49
2024/01/08 01:04:26;;;;;;;8.68;4.03;;;;;;;-3.61;100.00;102928.19;5067324;28;20097;-50
2024/01/08 01:06:55;;;;;;;7.63;4.25;;;;;;;-3.60;100.00;102927.34;5068833;28;20169;-51
2024/01/08 01:09:23;;;;;;;8.27;4.18;;;;;;;-3.58;100.00;102930.81;5068241;28;20121;-51
2024/01/08 01:11:51;;;;;;;9.70;3.88;;;;;;;-3.68;100.00;102938.25;5068253;28;20040;-50
2024/01/08 01:14:19;;;;;;;6.90;3.78;;;;;;;-3.67;100.00;102934.84;5069285;28;20098;-48
2024/01/08 01:16:49;;;;;;;7.60;4.00;;;;;;;-3.65;100.00;102938.34;5070333;28;20067;-50
2024/01/08 01:19:17;;;;;;;10.77;4.47;;;;;;;-3.65;100.00;102939.22;5069067;28;20446;-51
2024/01/08 01:21:49;;;;;;;8.60;4.88;;;;;;;-3.68;100.00;102946.84;5068310;28;20504;-48
2024/01/08 01:24:17;;;;;;;7.43;4.20;;;;;;;-3.71;100.00;102948.47;5071771;28;20053;-50
2024/01/08 01:26:46;;;;;;;8.32;4.07;;;;;;;-3.74;100.00;102949.25;5071218;28;20095;-49
2024/01/08 01:29:14;;;;;;;7.53;3.92;;;;;;;-3.77;100.00;102949.16;5071121;28;20044;-51
2024/01/08 01:31:42;;;;;;;9.10;4.20;;;;;;;-3.78;100.00;102953.41;5068479;28;20063;-48
2024/01/08 01:34:13;;;;;;;8.18;3.85;;;;;;;-3.82;100.00;102955.88;5068325;28;21170;-52
2024/01/08 01:36:42;;;;;;;9.57;4.33;;;;;;;-3.84;100.00;102965.25;5069584;28;20198;-50
2024/01/08 01:39:10;;;;;;;9.73;4.15;;;;;;;-3.86;100.00;102966.91;5068060;28;20049;-50
2024/01/08 01:41:38;;;;;;;7.95;4.15;;;;;;;-3.90;100.00;102963.34;5067850;28;20072;-50
2024/01/08 01:44:06;;;;;;;8.57;4.32;;;;;;;-3.90;100.00;102968.50;5069457;28;20124;-50
2024/01/08 01:46:40;;;;;;;10.02;4.80;;;;;;;-3.89;100.00;102971.97;5068052;28;20049;-49
2024/01/08 01:49:13;;;;;;;10.18;4.95;;;;;;;-3.90;100.00;102968.50;5068114;28;20094;-48
2024/01/08 01:51:43;;;;;;;9.00;4.32;;;;;;;-3.92;100.00;102963.31;5067978;28;20556;-50
2024/01/08 01:54:15;;;;;;;10.85;4.88;;;;;;;-3.96;100.00;102963.19;5068121;28;20076;-49
2024/01/08 01:56:47;;;;;;;9.15;4.57;;;;;;;-3.98;100.00;102970.88;5068213;28;20772;-52
2024/01/08 01:59:16;;;;;;;;;;;;;;;-3.96;100.00;102971.78;5068399;28;20123;-50
2024/01/08 02:01:46;;;;;;;9.30;4.20;;;;;;;-4.02;100.00;102963.91;5067646;28;20679;-51
2024/01/08 02:04:17;;;;;;;9.20;4.90;;;;;;;-4.09;100.00;102967.09;5067960;28;20640;-51
2024/01/08 02:06:46;;;;;;;9.05;4.43;;;;;;;-4.09;100.00;102975.69;5067573;28;20057;-51
2024/01/08 02:09:15;;;;;;;9.65;4.72;;;;;;;-4.08;100.00;102962.03;5069567;28;20056;-50
2024/01/08 02:11:44;;;;;;;9.05;4.55;;;;;;;-4.11;100.00;102963.63;5071289;28;20056;-49
2024/01/08 02:14:13;;;;;;;10.38;5.05;;;;;;;-4.11;100.00;102961.03;5071478;28;20155;-50
2024/01/08 02:16:42;;;;;;;9.32;4.53;;;;;;;-4.16;100.00;102960.03;5073578;28;20048;-49
2024/01/08 02:19:12;;;;;;;10.05;5.20;;;;;;;-4.15;100.00;102956.63;5071299;28;20819;-49
2024/01/08 02:21:42;;;;;;;10.55;5.00;;;;;;;-4.17;100.00;102963.41;5071209;28;20118;-48
2024/01/08 02:24:12;;;;;;;9.15;4.63;;;;;;;-4.17;100.00;102966.00;5071676;28;20397;-50
2024/01/08 02:26:40;;;;;;;9.10;4.55;;;;;;;-4.18;100.00;102961.69;5073914;28;20550;-51
2024/01/08 02:29:09;;;;;;;8.90;4.70;;;;;;;-4.22;100.00;102959.88;5073672;28;20040;-50
2024/01/08 02:31:37;;;;;;;10.07;4.57;;;;;;;-4.17;100.00;102961.75;5070463;28;20051;-52
2024/01/08 02:34:05;;;;;;;9.02;4.70;;;;;;;-4.15;100.00;102961.78;5072443;28;20048;-46
2024/01/08 02:36:34;;;;;;;8.80;4.32;;;;;;;-4.14;100.00;102960.97;5074207;28;20047;-45
2024/01/08 02:39:02;;;;;;;8.10;4.32;;;;;;;-4.13;100.00;102961.00;5071363;28;20045;-49
2024/01/08 02:41:32;;;;;;;8.70;4.60;;;;;;;-4.16;100.00;102965.16;5071607;28;20132;-45
2024/01/08 02:44:00;;;;;;;9.57;4.43;;;;;;;-4.14;100.00;102966.09;5073909;28;20055;-47
2024/01/08 02:46:29;;;;;;;12.07;4.82;;;;;;;-4.16;100.00;102965.16;5073667;28;20131;-50
2024/01/08 02:48:58;;;;;;;10.70;4.97;;;;;;;-4.12;100.00;102969.56;5073649;28;20043;-52
2024/01/08 02:51:27;;;;;;;9.50;4.70;;;;;;;-4.09;100.00;102969.66;5070813;28;20044;-49
2024/01/08 02:53:55;;;;;;;9.25;4.65;;;;;;;-4.11;100.00;102973.91;5071167;28;20049;-46
2024/01/08 02:56:25;;;;;;;9.70;4.47;;;;;;;-4.13;100.00;102967.81;5073761;28;20431;-46
2024/01/08 02:58:55;;;;;;;11.00;4.35;;;;;;;-4.15;100.00;102966.91;5073676;28;20060;-45
2024/01/08 03:01:23;;;;;;;11.80;4.93;;;;;;;-4.16;100.00;102965.16;5073643;28;20046;-46
2024/01/08 03:03:51;;;;;;;10.75;4.43;;;;;;;-4.13;100.00;102962.69;5073691;28;20049;-45
2024/01/08 03:06:20;;;;;;;9.45;4.47;;;;;;;-4.15;100.00;102972.06;5073659;28;20052;-46
2024/01/08 03:08:48;;;;;;;9.27;4.75;;;;;;;-4.13;100.00;102965.25;5073539;28;20059;-45
2024/01/08 03:11:16;;;;;;;9.70;4.53;;;;;;;-4.11;100.00;102976.47;5073631;28;20063;-45
2024/01/08 03:13:44;;;;;;;8.57;4.45;;;;;;;-4.07;100.00;102976.59;5073514;28;20179;-44
2024/01/08 03:16:14;;;;;;;11.20;4.40;;;;;;;-4.02;100.00;102973.28;5073419;28;20057;-44
2024/01/08 03:18:42;;;;;;;10.65;4.80;;;;;;;-4.02;100.00;102974.19;5073351;28;20044;-45
2024/01/08 03:21:10;;;;;;;10.13;4.85;;;;;;;-3.97;100.00;102976.88;5071494;28;20055;-46
2024/01/08 03:23:38;;;;;;;8.68;4.28;;;;;;;-3.92;100.00;102986.47;5071924;28;20044;-45
2024/01/08 03:26:07;;;;;;;9.05;4.28;;;;;;;-3.86;100.00;102982.31;5073335;28;20119;-45
2024/01/08 03:28:35;;;;;;;8.73;4.07;;;;;;;-3.81;100.00;102973.91;5073057;28;20058;-45
2024/01/08 03:31:04;;;;;;;8.30;4.30;;;;;;;-3.79;100.00;102977.41;5072583;28;20189;-45
2024/01/08 03:33:33;;;;;;;9.80;4.00;;;;;;;-3.74;100.00;102974.97;5072793;28;20066;-44
2024/01/08 03:36:02;;;;;;;9.55;4.32;;;;;;;-3.79;100.00;102976.53;5073062;28;20462;-45
2024/01/08 03:38:31;;;;;;;8.82;4.30;;;;;;;-3.78;100.00;102975.72;5073007;28;20119;-46
2024/01/08 03:40:59;;;;;;;8.85;4.75;;;;;;;-3.78;100.00;102979.13;5072916;28;20040;-44
2024/01/08 03:43:27;;;;;;;8.88;4.05;;;;;;;-3.77;100.00;102980.03;5072797;28;20548;-46
2024/01/08 03:45:55;;;;;;;8.40;4.32;;;;;;;-3.74;100.00;102973.28;5072808;28;20080;-49
2024/01/08 03:48:24;;;;;;;8.88;4.35;;;;;;;-3.70;100.00;102965.66;5072639;28;20090;-45
2024/01/08 03:50:53;;;;;;;9.90;4.53;;;;;;;-3.71;100.00;102982.75;5072562;28;20125;-44
2024/01/08 03:53:21;;;;;;;8.15;4.25;;;;;;;-3.69;100.00;102975.13;5072460;28;20080;-45
2024/01/08 03:55:50;;;;;;;10.07;4.53;;;;;;;-3.67;100.00;102973.44;5072620;28;20048;-48
2024/01/08 03:58:18;;;;;;;9.13;4.43;;;;;;;-3.66;100.00;102976.06;5071243;28;20446;-48
2024/01/08 04:00:46;;;;;;;9.07;4.65;;;;;;;-3.69;100.00;102965.69;5072155;28;20048;-49
2024/01/08 04:03:14;;;;;;;10.88;5.07;;;;;;;-3.64;100.00;102969.25;5072221;28;20380;-46
2024/01/08 04:05:46;;;;;;;10.00;4.65;;;;;;;-3.62;100.00;102974.44;5072074;28;20048;-45
2024/01/08 04:08:15;;;;;;;10.15;4.93;;;;;;;-3.64;100.00;102976.09;5072120;28;20044;-45
2024/01/08 04:10:46;;;;;;;10.45;5.30;;;;;;;-3.67;100.00;102976.88;5072307;28;20411;-45
2024/01/08 04:13:14;;;;;;;10.57;4.95;;;;;;;-3.60;100.00;102978.81;5072092;28;20048;-46
2024/01/08 04:15:43;;;;;;;10.05;4.57;;;;;;;-3.62;100.00;102975.31;5072243;28;20052;-44
2024/01/08 04:18:12;;;;;;;12.43;5.13;;;;;;;-3.65;100.00;102972.66;5072154;28;20534;-45
2024/01/08 04:20:41;;;;;;;9.93;5.32;;;;;;;-3.62;100.00;102965.03;5072152;28;20055;-45
2024/01/08 04:23:10;;;;;;;9.55;4.95;;;;;;;-3.61;100.00;102964.19;5070619;28;20049;-44
2024/01/08 04:25:40;;;;;;;10.88;5.35;;;;;;;-3.61;100.00;102964.19;5071955;28;20047;-45
2024/01/08 04:28:11;;;;;;;10.43;5.25;;;;;;;-3.57;100.00;102963.44;5071963;28;20044;-45
2024/01/08 04:30:39;;;;;;;10.25;5.30;;;;;;;-3.59;100.00;102970.25;5071957;28;20059;-45
2024/01/08 04:33:08;;;;;;;11.77;6.20;;;;;;;-3.55;100.00;102975.50;5071092;28;20044;-44
2024/01/08 04:35:36;;;;;;;10.80;5.82;;;;;;;-3.52;100.00;102978.13;5071825;28;20067;-46
2024/01/08 04:38:04;;;;;;;13.05;5.88;;;;;;;-3.51;100.00;102972.19;5071841;28;20048;-45
2024/01/08 04:40:32;;;;;;;11.25;5.97;;;;;;;-3.50;100.00;102969.63;5071489;28;20044;-48
2024/01/08 04:43:02;;;;;;;10.85;5.53;;;;;;;-3.48;100.00;102972.25;5071384;28;20044;-47
2024/01/08 04:45:31;;;;;;;11.55;5.38;;;;;;;-3.46;100.00;102970.59;5071710;28;20098;-47
2024/01/08 04:48:03;;;;;;;11.60;5.25;;;;;;;-3.44;100.00;102974.06;5071401;28;20086;-48
2024/01/08 04:50:32;;;;;;;11.25;5.63;;;;;;;-3.42;100.00;102969.84;5072040;28;20123;-45
2024/01/08 04:53:00;;;;;;;11.38;6.70;;;;;;;-3.44;100.00;102963.78;5071448;28;20589;-45
2024/01/08 04:55:29;;;;;;;10.27;5.85;;;;;;;-3.37;100.00;102968.25;5071814;28;20101;-46
2024/01/08 04:57:58;;;;;;;12.82;6.40;;;;;;;-3.42;100.00;102959.56;5071662;28;20044;-46
2024/01/08 05:00:29;;;;;;;13.23;6.55;;;;;;;-3.39;100.00;102967.34;5071716;28;20114;-46
2024/01/08 05:02:57;;;;;;;11.70;6.13;;;;;;;-3.40;100.00;102963.03;5067936;28;20439;-46
2024/01/08 05:05:26;;;;;;;13.38;6.38;;;;;;;-3.37;100.00;102963.09;5069813;28;20037;-46
2024/01/08 05:07:54;;;;;;;12.52;6.60;;;;;;;-3.39;100.00;102969.94;5071441;28;20048;-47
2024/01/08 05:10:22;;;;;;;12.07;6.10;;;;;;;-3.37;100.00;102969.97;5071430;28;20045;-47
2024/01/08 05:12:54;;;;;;;14.75;5.88;;;;;;;-3.37;100.00;102965.69;5071530;28;20064;-44
2024/01/08 05:15:22;;;;;;;12.65;6.22;;;;;;;-3.34;100.00;102964.91;5071647;28;20511;-47
2024/01/08 05:17:51;;;;;;;11.00;5.85;;;;;;;-3.32;100.00;102971.84;5071259;28;20404;-45
2024/01/08 05:20:22;;;;;;;;;;;;;;;-3.32;100.00;102966.69;5070931;28;20066;-52
2024/01/08 05:22:51;;;;;;;12.05;6.40;;;;;;;-3.29;100.00;102971.03;5068059;28;19928;-52
2024/01/08 05:25:19;;;;;;;11.75;6.28;;;;;;;-3.28;100.00;102955.63;5070763;28;20048;-48
2024/01/08 05:27:48;;;;;;;12.02;5.88;;;;;;;-3.21;100.00;102961.81;5071233;28;20571;-48
2024/01/08 05:30:16;;;;;;;14.50;5.82;;;;;;;-3.24;100.00;102962.59;5071157;28;20072;-49
2024/01/08 05:32:44;;;;;;;12.70;6.78;;;;;;;-3.24;100.00;102960.03;5071446;28;20500;-49
2024/01/08 05:35:14;;;;;;;14.40;7.10;;;;;;;-3.20;100.00;102953.28;5071546;28;20044;-49
2024/01/08 05:37:43;;;;;;;15.10;7.50;;;;;;;-3.17;100.00;102952.47;5071333;28;20507;-51
2024/01/08 05:40:12;;;;;;;16.80;7.10;;;;;;;-3.19;100.00;102959.28;5068859;28;20080;-53
2024/01/08 05:42:40;;;;;;;13.02;7.07;;;;;;;-3.10;100.00;102960.38;5067975;28;20052;-52
2024/01/08 05:45:11;;;;;;;12.27;6.18;;;;;;;-3.11;100.00;102950.06;5073307;28;20053;-50
2024/01/08 05:47:42;;;;;;;11.63;6.65;;;;;;;-3.10;100.00;102955.22;5071094;28;20079;-52
2024/01/08 05:50:10;;;;;;;12.55;6.55;;;;;;;-3.08;100.00;102952.69;5072022;28;20074;-50
2024/01/08 05:52:40;;;;;;;13.07;7.13;;;;;;;-3.07;100.00;102951.88;5070711;28;20092;-52
2024/01/08 05:55:09;;;;;;;13.23;5.95;;;;;;;-3.06;100.00;102951.03;5072518;28;20445;-51
2024/01/08 05:57:37;;;;;;;12.07;6.03;;;;;;;-3.09;100.00;102956.97;5075034;28;20880;-49
2024/01/08 06:00:07;;;;;;;11.55;6.10;;;;;;;-3.05;100.00;102963.09;5074920;28;20480;-49
2024/01/08 06:02:35;;;;;;;12.38;6.60;;;;;;;-3.07;100.00;102959.59;5074860;28;20158;-50
2024/01/08 06:05:03;;;;;;;13.35;6.32;;;;;;;-3.06;100.00;102956.19;5072255;28;20059;-48
2024/01/08 06:07:32;;;;;;;11.15;6.07;;;;;;;-3.03;100.00;102947.69;5070887;28;20091;-49
2024/01/08 06:10:01;;;;;;;11.57;6.10;;;;;;;-3.00;100.00;102948.63;5074609;28;20432;-49
2024/01/08 06:12:30;;;;;;;11.70;6.65;;;;;;;-3.01;100.00;102943.41;5073202;28;20076;-52
2024/01/08 06:14:58;;;;;;;15.18;6.30;;;;;;;-2.93;100.00;102947.94;5074825;28;20044;-53
2024/01/08 06:17:26;;;;;;;11.73;6.28;;;;;;;-2.95;100.00;102956.47;5071777;28;20048;-49
2024/01/08 06:19:54;;;;;;;11.55;6.35;;;;;;;-2.92;100.00;102953.97;5071571;28;20059;-49
2024/01/08 06:22:23;;;;;;;12.18;6.72;;;;;;;-2.95;100.00;102954.75;5071688;28;20056;-47
2024/01/08 06:24:51;;;;;;;12.82;6.03;;;;;;;-2.86;100.00;102948.97;5070965;28;20067;-49
2024/01/08 06:27:21;;;;;;;11.30;5.75;;;;;;;-2.92;100.00;102960.00;5072596;28;20048;-49
2024/01/08 06:29:49;;;;;;;12.55;6.40;;;;;;;-2.91;100.00;102960.84;5074232;28;20049;-47
2024/01/08 06:32:17;;;;;;;13.35;6.45;;;;;;;-2.94;100.00;102955.63;5073745;28;20119;-45
2024/01/08 06:34:45;;;;;;;14.30;6.78;;;;;;;-2.93;100.00;102967.66;5073956;28;20123;-46
2024/01/08 06:37:13;;;;;;;12.77;6.15;;;;;;;-2.91;100.00;102966.88;5074260;28;20075;-47
2024/01/08 06:39:42;;;;;;;12.02;5.88;;;;;;;-2.93;100.00;102962.50;5074190;28;20119;-47
2024/01/08 06:42:10;;;;;;;12.90;5.88;;;;;;;-2.89;100.00;102960.06;5074493;28;20047;-45
2024/01/08 06:44:40;;;;;;;12.13;6.10;;;;;;;-2.87;100.00;102961.81;5071431;28;20385;-46
2024/01/08 06:47:08;;;;;;;11.85;6.20;;;;;;;-2.87;100.00;102959.25;5070448;28;20048;-47
2024/01/08 06:49:36;;;;;;;12.13;5.80;;;;;;;-2.81;100.00;102969.69;5073274;28;20885;-46
2024/01/08 06:52:05;;;;;;;12.30;5.30;;;;;;;-2.84;100.00;102967.91;5070479;28;20455;-46
2024/01/08 06:54:34;;;;;;;11.23;5.05;;;;;;;-2.82;100.00;102970.50;5072341;28;20060;-45
2024/01/08 06:57:02;;;;;;;11.85;6.00;;;;;;;-2.75;100.00;102965.56;5071819;28;20143;-44
2024/01/08 06:59:31;;;;;;;15.23;5.93;;;;;;;-2.79;100.00;102974.03;5073803;28;20506;-44
2024/01/08 07:02:00;;;;;;;10.77;5.22;;;;;;;-2.81;100.00;102975.72;5073681;28;20434;-46
2024/01/08 07:04:29;;;;;;;9.65;5.32;;;;;;;-2.80;100.00;102969.72;5072447;28;20106;-45
2024/01/08 07:06:57;;;;;;;11.32;5.53;;;;;;;-2.80;100.00;102971.44;5070585;28;20524;-47
2024/01/08 07:09:26;;;;;;;11.02;5.07;;;;;;;-2.77;100.00;102974.06;5072029;28;20072;-47
2024/01/08 07:11:54;;;;;;;11.02;5.90;;;;;;;-2.81;100.00;102973.16;5073339;28;20050;-46
2024/01/08 07:14:26;;;;;;;10.90;4.72;;;;;;;-2.80;100.00;102974.00;5073416;28;20051;-45
2024/01/08 07:16:54;;;;;;;9.32;4.70;;;;;;;-2.79;100.00;102983.47;5073354;28;20068;-47
2024/01/08 07:19:24;;;;;;;9.77;5.40;;;;;;;-2.80;100.00;102981.72;5072115;28;20052;-46
2024/01/08 07:21:54;;;;;;;10.27;5.03;;;;;;;-2.82;100.00;102997.16;5069638;28;20148;-46
2024/01/08 07:24:22;;;;;;;12.13;5.35;;;;;;;-2.76;100.00;102986.13;5070191;28;20048;-46
2024/01/08 07:26:52;;;;;;;10.23;4.90;;;;;;;-2.74;100.00;102990.47;5070815;28;20053;-47
2024/01/08 07:29:21;;;;;;;11.73;4.97;;;;;;;-2.78;100.00;102993.81;5072053;28;20109;-45
2024/01/08 07:31:49;;;;;;;11.57;5.30;;;;;;;-2.76;100.00;102988.69;5068544;28;20051;-46
2024/01/08 07:34:19;;;;;;;9.02;4.65;;;;;;;-2.73;100.00;102994.81;5072037;28;20051;-49
2024/01/08 07:36:48;;;;;;;8.93;4.45;;;;;;;-2.76;100.00;102992.13;5105729;28;20107;-47
2024/01/08 07:39:17;;;;;;;9.23;4.80;;;;;;;-2.73;100.00;103002.53;5073140;28;20040;-48
2024/01/08 07:41:45;;;;;;;12.05;5.28;;;;;;;-2.70;100.00;102988.84;5072971;28;20438;-46
2024/01/08 07:44:14;;;;;;;11.77;5.30;;;;;;;-2.72;100.00;103003.41;5072724;28;20457;-45
2024/01/08 07:46:42;;;;;;;8.45;4.53;;;;;;;-2.71;100.00;103002.56;5072707;28;20055;-44
2024/01/08 07:49:11;;;;;;;9.48;4.85;;;;;;;-2.72;100.00;103004.25;5072759;28;20119;-45
2024/01/08 07:51:40;;;;;;;8.50;4.68;;;;;;;-2.70;100.00;102998.28;5072607;28;20135;-45
2024/01/08 07:54:09;;;;;;;10.75;4.88;;;;;;;-2.70;100.00;103006.00;5072873;28;20041;-48
2024/01/08 07:56:37;;;;;;;10.10;4.57;;;;;;;-2.62;100.00;103000.22;5072545;28;20045;-45
2024/01/08 07:59:20;;;;;;;9.70;5.22;;;;;;;-2.65;100.00;102999.28;5072475;28;20401;-45
2024/01/08 08:01:48;;;;;;;9.32;5.00;;;;;;;-2.62;100.00;103007.97;5072495;28;20058;-44
2024/01/08 08:04:16;;;;;;;11.52;5.25;;;;;;;-2.65;100.00;103005.28;5072466;28;20507;-47
2024/01/08 08:06:45;;;;;;;9.43;5.10;;;;;;;-2.66;100.00;103003.53;5072450;28;20051;-47
2024/01/08 08:09:14;;;;;;;8.88;4.78;;;;;;;-2.66;100.00;103008.69;5072538;28;20072;-45
2024/01/08 08:11:43;;;;;;;9.32;4.93;;;;;;;-2.67;100.00;103017.28;5072428;28;20130;-48
2024/01/08 08:14:12;;;;;;;8.65;4.50;;;;;;;-2.63;100.00;103016.50;5069275;28;20578;-50
2024/01/08 08:16:40;;;;;;;9.55;5.10;;;;;;;-2.68;100.00;103012.94;5069054;28;20052;-45
2024/01/08 08:19:08;;;;;;;10.07;4.72;;;;;;;-2.62;100.00;103020.84;5071774;28;20067;-45
2024/01/08 08:21:38;;;;;;;13.60;5.88;;;;;;;-2.65;100.00;103023.31;5069559;28;20117;-51
2024/01/08 08:24:07;;;;;;;9.88;4.95;;;;;;;-2.67;100.00;103025.00;5070501;28;20518;-52
2024/01/08 08:26:39;;;;;;;11.55;5.30;;;;;;;-2.66;100.00;103023.28;5072307;28;20076;-50
2024/01/08 08:29:07;;;;;;;10.05;5.28;;;;;;;-2.64;100.00;103025.06;5072205;28;20044;-49
2024/01/08 08:31:37;;;;;;;11.80;5.90;;;;;;;-2.63;100.00;103020.78;5072336;28;20500;-46
2024/01/08 08:34:06;;;;;;;10.60;6.00;;;;;;;-2.62;100.00;103025.09;5072089;28;20076;-45
2024/01/08 08:36:34;;;;;;;10.10;5.35;;;;;;;-2.62;100.00;103028.56;5072294;28;20478;-46
2024/01/08 08:39:02;;;;;;;8.73;4.68;;;;;;;-2.58;100.00;103035.53;5071883;28;20052;-46
2024/01/08 08:41:31;;;;;;;10.10;5.13;;;;;;;-2.46;100.00;103034.09;5072108;28;20045;-45
2024/01/08 08:44:01;;;;;;;11.18;5.38;;;;;;;-2.51;100.00;103038.25;5071733;28;20122;-49
2024/01/08 08:46:30;;;;;;;11.13;5.32;;;;;;;-2.51;100.00;103044.25;5071905;28;20120;-46
2024/01/08 08:48:58;;;;;;;8.73;4.85;;;;;;;-2.49;100.00;103046.91;5071686;28;20044;-46
2024/01/08 08:51:27;;;;;;;11.77;5.55;;;;;;;-2.53;100.00;103053.69;5071640;28;20071;-45
2024/01/08 08:53:56;;;;;;;10.32;5.45;;;;;;;-2.53;100.00;103056.25;5071567;28;20147;-47
2024/01/08 08:56:24;;;;;;;9.85;5.78;;;;;;;-2.55;100.00;103045.03;5070447;28;20534;-48
2024/01/08 08:58:53;;;;;;;11.55;6.15;;;;;;;-2.57;100.00;103054.44;5071679;28;20753;-45
2024/01/08 09:01:23;;;;;;;12.10;6.20;;;;;;;-2.56;100.00;103051.91;5071597;28;20036;-46
2024/01/08 09:03:52;;;;;;;11.82;5.97;;;;;;;-2.58;100.00;103051.00;5071444;28;20048;-46
2024/01/08 09:06:23;;;;;;;12.00;5.88;;;;;;;-2.59;100.00;103051.81;5071658;28;20047;-49
2024/01/08 09:08:51;;;;;;;11.47;5.97;;;;;;;-2.64;100.00;103061.13;5071939;28;20515;-49
2024/01/08 09:11:20;;;;;;;9.27;5.90;;;;;;;-2.63;100.00;103060.31;5071249;28;20052;-46
2024/01/08 09:13:49;;;;;;;11.07;6.20;;;;;;;-2.60;100.00;103052.66;5071158;28;20053;-46
2024/01/08 09:16:17;;;;;;;10.80;5.80;;;;;;;-2.50;100.00;103060.63;5071338;28;20135;-45
2024/01/08 09:18:47;;;;;;;13.23;6.82;;;;;;;-2.54;100.00;103054.50;5071840;28;20106;-45
2024/01/08 09:21:15;;;;;;;12.52;5.78;;;;;;;-2.51;100.00;103061.44;5075451;28;20139;-47
2024/01/08 09:23:44;;;;;;;11.10;6.25;;;;;;;-2.48;100.00;103072.72;5075280;28;20052;-46
2024/01/08 09:26:12;;;;;;;9.90;5.78;;;;;;;-2.54;100.00;103057.09;5075610;28;20037;-45
2024/01/08 09:28:41;;;;;;;11.02;5.97;;;;;;;-2.49;100.00;103057.22;5075587;28;20132;-45
2024/01/08 09:31:09;;;;;;;11.27;5.63;;;;;;;-2.43;100.00;103067.66;5075699;28;20402;-45
2024/01/08 09:33:37;;;;;;;10.10;6.40;;;;;;;-2.41;100.00;103073.75;5075287;28;20075;-45
2024/01/08 09:36:07;;;;;;;10.75;5.97;;;;;;;-2.37;100.00;103067.81;5075102;28;20411;-46
2024/01/08 09:38:36;;;;;;;10.20;5.75;;;;;;;-2.37;100.00;103075.56;5075299;28;20052;-46
2024/01/08 09:41:04;;;;;;;8.52;5.05;;;;;;;-2.34;100.00;103083.34;5073590;28;20087;-46
2024/01/08 09:43:47;;;;;;;9.63;4.82;;;;;;;-2.36;100.00;103073.84;5071209;28;20048;-45
2024/01/08 09:46:24;;;;;;;10.20;5.28;;;;;;;-2.28;100.00;103082.63;5073333;28;20134;-46
2024/01/08 09:48:56;;;;;;;11.02;5.53;;;;;;;-2.31;100.00;103085.13;5075094;28;20450;-47
2024/01/08 09:51:27;;;;;;;11.50;5.43;;;;;;;-2.30;100.00;103085.16;5074651;28;20060;-46
2024/01/08 09:53:59;;;;;;;9.90;5.35;;;;;;;-2.27;100.00;103080.09;5074869;28;20052;-49
2024/01/08 09:56:28;;;;;;;9.57;4.97;;;;;;;-2.23;100.00;103081.03;5075012;28;20123;-47
2024/01/08 09:58:56;;;;;;;10.88;5.35;;;;;;;-2.20;100.00;103078.53;5074987;28;20560;-47
2024/01/08 10:01:25;;;;;;;9.38;5.25;;;;;;;-2.19;100.00;103084.56;5075154;28;20055;-46
2024/01/08 10:03:53;;;;;;;10.50;5.07;;;;;;;-2.13;100.00;103084.69;5074945;28;20049;-48
2024/01/08 10:06:22;;;;;;;10.52;6.05;;;;;;;-2.18;100.00;103073.41;5073536;28;20087;-47
2024/01/08 10:08:52;;;;;;;9.60;5.30;;;;;;;-2.17;100.00;103077.72;5074730;28;20044;-47
2024/01/08 10:11:21;;;;;;;9.88;4.72;;;;;;;-2.10;100.00;103067.59;5074664;28;20496;-49
2024/01/08 10:13:50;;;;;;;9.15;5.13;;;;;;;-2.06;100.00;103079.72;5074728;28;20040;-49
2024/01/08 10:16:19;;;;;;;7.75;4.35;;;;;;;-2.07;100.00;103077.13;5074513;28;20048;-49
2024/01/08 10:18:47;;;;;;;10.02;5.60;;;;;;;-2.04;100.00;103072.03;5074758;28;20044;-47
2024/01/08 10:21:17;;;;;;;9.52;4.45;;;;;;;-2.01;100.00;103072.09;5073350;28;20047;-47
2024/01/08 10:23:47;;;;;;;8.40;4.65;;;;;;;-1.92;100.00;103067.16;5074387;28;20044;-48
2024/01/08 10:26:17;;;;;;;10.63;5.47;;;;;;;-1.92;100.00;103074.88;5074250;28;20053;-45
2024/01/08 10:28:46;;;;;;;9.82;5.35;;;;;;;-1.91;100.00;103084.38;5074297;28;20052;-47
2024/01/08 10:31:15;;;;;;;8.63;4.88;;;;;;;-1.92;100.00;103068.88;5071738;28;20139;-46
2024/01/08 10:33:45;;;;;;;11.80;6.28;;;;;;;-1.88;100.00;103068.97;5074343;28;20067;-48
2024/01/08 10:36:15;;;;;;;9.15;5.20;;;;;;;-1.91;100.00;103076.63;5070918;28;20052;-46
2024/01/08 10:38:44;;;;;;;8.75;4.63;;;;;;;-1.85;100.00;103080.16;5072171;28;20136;-46
2024/01/08 10:41:13;;;;;;;11.00;5.25;;;;;;;-1.91;100.00;103063.75;5074018;28;20379;-47
2024/01/08 10:43:43;;;;;;;11.38;5.38;;;;;;;-1.92;100.00;103064.56;5072700;28;20056;-46
2024/01/08 10:46:12;;;;;;;11.95;5.28;;;;;;;-1.85;100.00;103056.94;5073668;28;20411;-45
2024/01/08 10:48:41;;;;;;;9.40;4.72;;;;;;;-1.79;100.00;103064.84;5070931;28;20078;-47
2024/01/08 10:51:11;;;;;;;10.05;4.72;;;;;;;-1.75;100.00;103059.75;5071080;28;20077;-47
2024/01/08 10:53:46;;;;;;;8.35;4.82;;;;;;;-1.71;100.00;103056.41;5072461;28;20064;-45
2024/01/08 10:56:16;;;;;;;9.57;4.90;;;;;;;-1.65;100.00;103044.47;5073959;28;20119;-46
2024/01/08 10:58:53;;;;;;;9.15;4.55;;;;;;;-1.65;100.00;103063.44;5073229;28;20079;-46
2024/01/08 11:01:22;;;;;;;8.15;4.38;;;;;;;-1.66;100.00;103046.22;5072577;28;20048;-47
2024/01/08 11:03:51;;;;;;;8.55;4.68;;;;;;;-1.62;100.00;103050.59;5072455;28;20127;-46
2024/01/08 11:06:22;;;;;;;8.30;4.47;;;;;;;-1.62;100.00;103044.53;5072681;28;20109;-45
2024/01/08 11:08:51;;;;;;;8.13;4.63;;;;;;;-1.58;100.00;103041.19;5073417;28;20055;-46
2024/01/08 11:11:22;;;;;;;9.65;4.53;;;;;;;-1.56;100.00;103042.97;5072182;28;20072;-45
2024/01/08 11:13:51;;;;;;;7.68;4.28;;;;;;;-1.51;100.00;103035.34;5073326;28;20102;-45
2024/01/08 11:16:28;;;;;;;9.77;4.50;;;;;;;-1.52;100.00;103049.06;5071334;28;20123;-47
2024/01/08 11:19:27;;;;;;;11.30;4.85;;;;;;;-1.49;100.00;103050.84;5069586;28;20051;-47
2024/01/08 11:21:56;;;;;;;10.02;5.70;;;;;;;-1.54;100.00;103045.56;5071577;28;20076;-49
2024/01/08 11:24:25;;;;;;;9.75;4.60;;;;;;;-1.48;100.00;103047.44;5073632;28;20045;-50